createdAt,value
2022-09-15T00:01:30.962Z,51.40
2022-09-15T00:03:59.213Z,51.30
2022-09-15T00:06:27.121Z,51.50
2022-09-15T00:08:56.564Z,51.40
2022-09-15T00:11:26.509Z,51.80
2022-09-15T00:13:57.942Z,51.70
2022-09-15T00:16:27.962Z,51.70
2022-09-15T00:18:56.414Z,51.60
2022-09-15T00:21:26.836Z,51.70
2022-09-15T00:23:57.090Z,51.70
2022-09-15T00:26:28.265Z,51.90
2022-09-15T00:28:58.122Z,52.00
2022-09-15T00:31:28.103Z,51.80
2022-09-15T00:33:58.305Z,52.00
2022-09-15T00:36:27.683Z,51.90
2022-09-15T00:38:57.558Z,52.20
2022-09-15T00:41:26.213Z,52.10
2022-09-15T00:43:58.261Z,52.00
2022-09-15T00:46:30.033Z,52.10
2022-09-15T00:49:04.736Z,52.20
2022-09-15T00:51:38.995Z,52.00
2022-09-15T00:54:14.415Z,52.10
2022-09-15T00:56:45.033Z,52.10
2022-09-15T00:59:17.837Z,51.90
2022-09-15T01:01:48.668Z,51.80
2022-09-15T01:04:17.514Z,51.80
2022-09-15T01:06:52.529Z,51.90
2022-09-15T01:09:37.185Z,52.10
2022-09-15T01:12:06.234Z,52.20
2022-09-15T01:14:34.553Z,52.20
2022-09-15T01:17:08.331Z,52.70
2022-09-15T01:19:59.378Z,53.00
2022-09-15T01:22:37.598Z,53.20
2022-09-15T01:25:15.831Z,53.00
2022-09-15T01:28:02.339Z,53.30
2022-09-15T01:30:36.892Z,53.40
2022-09-15T01:33:13.035Z,53.80
2022-09-15T01:36:02.297Z,53.70
2022-09-15T01:38:39.813Z,54.10
2022-09-15T01:41:15.424Z,54.70
2022-09-15T01:43:48.981Z,54.40
2022-09-15T01:46:20.453Z,54.10
2022-09-15T01:48:49.445Z,54.00
2022-09-15T01:51:18.633Z,53.80
2022-09-15T01:53:50.713Z,53.20
2022-09-15T01:56:18.885Z,52.90
2022-09-15T01:58:51.970Z,53.00
2022-09-15T02:01:29.709Z,52.90
2022-09-15T02:04:03.086Z,52.90
2022-09-15T02:06:39.329Z,52.90
2022-09-15T02:09:13.684Z,52.70
2022-09-15T02:11:52.158Z,52.70
2022-09-15T02:14:36.750Z,52.60
2022-09-15T02:17:08.313Z,52.60
2022-09-15T02:19:42.043Z,52.50
2022-09-15T02:22:18.871Z,52.70
2022-09-15T02:24:52.095Z,52.60
2022-09-15T02:27:24.081Z,52.40
2022-09-15T02:29:56.702Z,52.40
2022-09-15T02:32:28.529Z,52.40
2022-09-15T02:34:59.720Z,52.30
2022-09-15T02:37:28.858Z,52.30
2022-09-15T02:39:58.569Z,52.30
2022-09-15T02:42:27.842Z,52.20
2022-09-15T02:44:56.401Z,52.30
2022-09-15T02:47:28.336Z,52.40
2022-09-15T02:49:57.013Z,52.30
2022-09-15T02:52:25.368Z,51.90
2022-09-15T02:54:54.621Z,52.10
2022-09-15T02:57:24.825Z,52.10
2022-09-15T03:00:11.206Z,52.20
2022-09-15T03:02:43.455Z,52.10
2022-09-15T03:05:12.769Z,52.10
2022-09-15T03:07:41.160Z,52.00
2022-09-15T03:10:11.934Z,52.10
2022-09-15T03:12:40.905Z,52.10
2022-09-15T03:15:11.761Z,52.10
2022-09-15T03:17:43.273Z,52.00
2022-09-15T03:20:13.718Z,52.20
2022-09-15T03:22:44.058Z,51.90
2022-09-15T03:25:15.027Z,52.10
2022-09-15T03:27:43.604Z,52.30
2022-09-15T03:30:13.712Z,52.50
2022-09-15T03:32:44.355Z,52.90
2022-09-15T03:35:12.527Z,52.80
2022-09-15T03:37:40.476Z,52.80
2022-09-15T03:40:11.260Z,53.00
2022-09-15T03:42:41.243Z,52.70
2022-09-15T03:45:12.759Z,53.00
2022-09-15T03:47:40.726Z,53.00
2022-09-15T03:50:10.580Z,53.10
2022-09-15T03:52:38.598Z,53.30
2022-09-15T03:55:07.448Z,53.20
2022-09-15T03:57:35.764Z,53.00
2022-09-15T04:00:05.192Z,53.20
2022-09-15T04:02:33.122Z,53.40
2022-09-15T04:05:03.038Z,53.50
2022-09-15T04:07:32.554Z,53.80
2022-09-15T04:10:00.958Z,53.90
2022-09-15T04:12:32.131Z,54.00
2022-09-15T04:15:00.255Z,54.20
2022-09-15T04:17:28.316Z,54.30
2022-09-15T04:19:57.576Z,54.60
2022-09-15T04:22:26.043Z,54.60
2022-09-15T04:24:55.457Z,55.10
2022-09-15T04:27:24.379Z,54.90
2022-09-15T04:29:52.903Z,55.10
2022-09-15T04:32:21.999Z,55.20
2022-09-15T04:34:50.574Z,55.30
2022-09-15T04:37:18.900Z,54.90
2022-09-15T04:39:49.191Z,55.30
2022-09-15T04:42:20.574Z,55.40
2022-09-15T04:44:49.402Z,55.50
2022-09-15T04:47:17.464Z,56.50
2022-09-15T04:49:45.544Z,55.70
2022-09-15T04:52:13.525Z,55.60
2022-09-15T04:54:41.602Z,55.50
2022-09-15T04:57:10.320Z,55.40
2022-09-15T04:59:39.994Z,55.70
2022-09-15T05:02:08.007Z,56.00
2022-09-15T05:04:38.264Z,56.30
2022-09-15T05:07:06.332Z,56.20
2022-09-15T05:09:34.263Z,56.50
2022-09-15T05:12:04.221Z,56.60
2022-09-15T05:14:33.982Z,56.40
2022-09-15T05:17:03.539Z,56.20
2022-09-15T05:19:31.469Z,56.10
2022-09-15T05:21:59.412Z,56.10
2022-09-15T05:24:31.058Z,56.20
2022-09-15T05:26:58.964Z,55.90
2022-09-15T05:29:27.108Z,55.20
2022-09-15T05:31:55.193Z,55.10
2022-09-15T05:34:24.881Z,55.60
2022-09-15T05:36:52.862Z,55.10
2022-09-15T05:39:20.795Z,55.00
2022-09-15T05:41:50.433Z,55.50
2022-09-15T05:44:18.721Z,55.50
2022-09-15T05:46:46.751Z,55.90
2022-09-15T05:49:15.089Z,56.00
2022-09-15T05:51:44.352Z,56.50
2022-09-15T05:54:12.273Z,57.00
2022-09-15T05:56:40.180Z,56.90
2022-09-15T05:59:09.433Z,57.30
2022-09-15T06:01:39.433Z,56.80
2022-09-15T06:04:08.319Z,56.50
2022-09-15T06:06:39.715Z,56.10
2022-09-15T06:09:09.857Z,56.10
2022-09-15T06:11:39.065Z,56.60
2022-09-15T06:14:07.391Z,55.80
2022-09-15T06:16:36.567Z,55.90
2022-09-15T06:19:05.029Z,55.70
2022-09-15T06:21:33.973Z,56.00
2022-09-15T06:24:04.446Z,55.40
2022-09-15T06:26:34.793Z,55.80
2022-09-15T06:29:06.914Z,56.10
2022-09-15T06:31:36.559Z,56.40
2022-09-15T06:34:07.066Z,56.00
2022-09-15T06:36:38.788Z,56.00
2022-09-15T06:39:06.745Z,56.50
2022-09-15T06:41:58.846Z,56.90
2022-09-15T06:44:29.907Z,57.30
2022-09-15T06:46:57.854Z,57.00
2022-09-15T06:49:27.588Z,56.80
2022-09-15T06:52:02.802Z,57.90
2022-09-15T06:54:31.268Z,57.90
2022-09-15T06:57:00.518Z,57.80
2022-09-15T06:59:28.722Z,57.70
2022-09-15T07:01:57.524Z,57.70
2022-09-15T07:04:26.627Z,56.80
2022-09-15T07:06:54.574Z,56.80
2022-09-15T07:09:22.776Z,56.60
2022-09-15T07:11:51.929Z,57.40
2022-09-15T07:14:21.301Z,57.00
2022-09-15T07:16:49.504Z,56.90
2022-09-15T07:19:17.789Z,55.40
2022-09-15T07:21:45.751Z,56.00
2022-09-15T07:24:14.768Z,55.40
2022-09-15T07:26:43.350Z,56.40
2022-09-15T07:29:11.277Z,57.50
2022-09-15T07:31:40.882Z,59.20
2022-09-15T07:34:08.994Z,60.20
2022-09-15T07:36:39.297Z,59.40
2022-09-15T07:39:08.153Z,57.90
2022-09-15T07:41:37.292Z,57.30
2022-09-15T07:44:11.765Z,57.80
2022-09-15T07:46:43.075Z,57.50
2022-09-15T07:49:12.820Z,56.90
2022-09-15T07:51:41.162Z,57.10
2022-09-15T07:54:11.553Z,56.00
2022-09-15T07:56:39.489Z,56.40
2022-09-15T07:59:07.945Z,57.00
2022-09-15T08:01:38.579Z,57.20
2022-09-15T08:04:10.071Z,56.50
2022-09-15T08:06:38.979Z,56.50
2022-09-15T08:09:10.136Z,55.70
2022-09-15T08:11:39.862Z,55.30
2022-09-15T08:14:08.104Z,54.60
2022-09-15T08:16:36.388Z,54.60
2022-09-15T08:19:11.517Z,54.40
2022-09-15T08:21:41.698Z,53.20
2022-09-15T08:24:11.300Z,53.80
2022-09-15T08:26:42.378Z,54.00
2022-09-15T08:29:12.665Z,55.00
2022-09-15T08:31:40.623Z,54.80
2022-09-15T08:34:14.605Z,54.80
2022-09-15T08:36:42.551Z,55.10
2022-09-15T08:39:15.283Z,55.40
2022-09-15T08:41:45.570Z,55.30
2022-09-15T08:44:24.625Z,54.30
2022-09-15T08:47:02.417Z,55.30
2022-09-15T08:49:51.149Z,54.70
2022-09-15T08:52:24.142Z,53.00
2022-09-15T08:54:58.556Z,51.80
2022-09-15T08:57:27.269Z,53.10
2022-09-15T08:59:55.604Z,53.30
2022-09-15T09:02:52.241Z,52.90
2022-09-15T09:05:40.683Z,50.20
2022-09-15T09:08:42.274Z,51.30
2022-09-15T09:11:19.080Z,51.70
2022-09-15T09:13:54.872Z,52.20
2022-09-15T09:16:44.793Z,52.50
2022-09-15T09:19:35.946Z,53.10
2022-09-15T09:22:11.791Z,52.30
2022-09-15T09:24:44.990Z,52.90
2022-09-15T09:27:15.802Z,53.00
2022-09-15T09:29:49.565Z,53.00
2022-09-15T09:32:22.220Z,52.90
2022-09-15T09:35:00.685Z,52.40
2022-09-15T09:37:30.503Z,52.30
2022-09-15T09:39:58.494Z,52.70
2022-09-15T09:42:31.324Z,52.00
2022-09-15T09:44:59.467Z,52.50
2022-09-15T09:47:32.734Z,52.00
2022-09-15T09:50:04.988Z,52.70
2022-09-15T09:52:36.829Z,52.70
2022-09-15T09:55:21.998Z,53.50
2022-09-15T09:57:50.503Z,53.50
2022-09-15T10:00:33.647Z,53.10
2022-09-15T10:03:11.535Z,53.60
2022-09-15T10:05:41.070Z,52.70
2022-09-15T10:08:17.688Z,53.10
2022-09-15T10:10:53.123Z,52.60
2022-09-15T10:13:23.702Z,52.60
2022-09-15T10:15:55.638Z,52.70
2022-09-15T10:18:30.955Z,52.00
2022-09-15T10:21:04.554Z,52.40
2022-09-15T10:23:35.136Z,52.60
2022-09-15T10:26:33.345Z,52.70
2022-09-15T10:29:19.896Z,53.50
2022-09-15T10:31:49.499Z,52.80
2022-09-15T10:34:26.561Z,53.10
2022-09-15T10:37:02.245Z,53.30
2022-09-15T10:39:43.224Z,53.30
2022-09-15T10:42:18.907Z,54.00
2022-09-15T10:44:55.960Z,54.00
2022-09-15T10:47:34.425Z,53.70
2022-09-15T10:50:17.424Z,54.50
2022-09-15T10:53:01.125Z,54.50
2022-09-15T10:55:52.776Z,55.40
2022-09-15T10:58:45.623Z,55.40
2022-09-15T11:01:30.016Z,55.10
2022-09-15T11:04:17.870Z,55.30
2022-09-15T11:06:54.405Z,53.80
2022-09-15T11:09:27.361Z,54.00
2022-09-15T11:12:17.100Z,54.20
2022-09-15T11:15:05.542Z,54.70
2022-09-15T11:17:46.384Z,54.20
2022-09-15T11:20:33.629Z,53.50
2022-09-15T11:23:13.733Z,54.00
2022-09-15T11:25:45.476Z,53.60
2022-09-15T11:28:22.584Z,53.30
2022-09-15T11:30:56.548Z,52.70
2022-09-15T11:33:32.067Z,53.30
2022-09-15T11:36:07.807Z,54.30
2022-09-15T11:38:42.967Z,54.60
2022-09-15T11:41:21.393Z,54.00
2022-09-15T11:44:04.931Z,54.00
2022-09-15T11:46:41.943Z,53.60
2022-09-15T11:49:17.214Z,53.90
2022-09-15T11:51:56.276Z,53.50
2022-09-15T11:54:34.316Z,53.90
2022-09-15T11:57:13.943Z,52.40
2022-09-15T11:59:48.476Z,53.10
2022-09-15T12:02:24.625Z,53.40
2022-09-15T12:05:12.811Z,53.50
2022-09-15T12:07:47.765Z,53.20
2022-09-15T12:10:19.805Z,53.70
2022-09-15T12:12:51.486Z,53.50
2022-09-15T12:15:27.334Z,53.10
2022-09-15T12:18:06.547Z,52.90
2022-09-15T12:20:55.677Z,53.00
2022-09-15T12:23:32.663Z,53.10
2022-09-15T12:26:16.493Z,52.40
2022-09-15T12:28:58.413Z,52.10
2022-09-15T12:31:36.203Z,51.90
2022-09-15T12:34:07.476Z,51.60
2022-09-15T12:36:44.852Z,50.90
2022-09-15T12:39:30.460Z,50.10
2022-09-15T12:42:15.972Z,50.30
2022-09-15T12:44:49.040Z,48.90
2022-09-15T12:47:33.132Z,50.10
2022-09-15T12:50:09.286Z,49.70
2022-09-15T12:52:47.378Z,49.70
2022-09-15T12:55:21.027Z,49.50
2022-09-15T12:57:55.094Z,49.30
2022-09-15T13:00:34.698Z,50.10
2022-09-15T13:03:05.386Z,50.80
2022-09-15T13:06:08.635Z,50.80
2022-09-15T13:08:50.977Z,50.50
2022-09-15T13:11:29.515Z,50.20
2022-09-15T13:14:14.198Z,50.20
2022-09-15T13:16:50.530Z,50.60
2022-09-15T13:19:27.371Z,49.80
2022-09-15T13:22:02.219Z,51.40
2022-09-15T13:24:43.023Z,50.80
2022-09-15T13:27:13.147Z,50.50
2022-09-15T13:29:49.897Z,50.50
2022-09-15T13:32:31.675Z,51.30
2022-09-15T13:35:31.423Z,51.50
2022-09-15T13:38:39.554Z,50.50
2022-09-15T13:41:33.942Z,50.50
2022-09-15T13:44:33.904Z,50.50
2022-09-15T13:47:17.090Z,50.50
2022-09-15T13:49:53.313Z,50.10
2022-09-15T13:53:01.821Z,49.70
2022-09-15T13:55:34.493Z,50.30
2022-09-15T14:01:01.056Z,50.20
2022-09-15T14:03:38.754Z,50.60
2022-09-15T14:06:17.841Z,51.10
2022-09-15T14:08:51.011Z,50.20
2022-09-15T14:11:32.867Z,50.40
2022-09-15T14:14:01.443Z,50.30
2022-09-15T14:16:36.755Z,50.90
2022-09-15T14:19:33.376Z,50.90
2022-09-15T14:22:01.997Z,50.90
2022-09-15T14:24:34.035Z,50.20
2022-09-15T14:27:14.159Z,50.10
2022-09-15T14:29:43.166Z,50.20
2022-09-15T14:32:16.464Z,49.90
2022-09-15T14:37:24.315Z,49.70
2022-09-15T14:39:56.545Z,50.40
2022-09-15T14:42:30.603Z,49.70
2022-09-15T14:48:02.541Z,49.40
2022-09-15T14:50:33.845Z,50.10
2022-09-15T14:53:04.748Z,50.30
2022-09-15T14:55:38.279Z,50.50
2022-09-15T14:58:13.630Z,50.90
2022-09-15T15:00:54.387Z,51.30
2022-09-15T15:03:30.843Z,51.30
2022-09-15T15:06:25.337Z,51.40
2022-09-15T15:08:56.932Z,51.10
2022-09-15T15:11:27.939Z,51.10
2022-09-15T15:13:57.383Z,51.70
2022-09-15T15:16:29.521Z,51.70
2022-09-15T15:19:01.948Z,51.60
2022-09-15T15:21:40.294Z,52.50
2022-09-15T15:24:29.252Z,52.60
2022-09-15T15:26:57.396Z,52.50
2022-09-15T15:29:41.413Z,52.80
2022-09-15T15:32:15.472Z,51.00
2022-09-15T15:34:50.587Z,51.40
2022-09-15T15:37:27.131Z,51.80
2022-09-15T15:39:57.368Z,51.60
2022-09-15T15:42:32.157Z,51.50
2022-09-15T15:45:03.355Z,51.60
2022-09-15T15:47:34.715Z,52.00
2022-09-15T15:50:14.454Z,51.70
2022-09-15T15:52:53.900Z,51.50
2022-09-15T15:55:24.146Z,51.40
2022-09-15T15:57:57.723Z,51.40
2022-09-15T16:00:36.698Z,52.80
2022-09-15T16:03:06.483Z,52.50
2022-09-15T16:05:37.278Z,52.70
2022-09-15T16:08:14.632Z,53.10
2022-09-15T16:10:46.045Z,52.90
2022-09-15T16:13:16.274Z,52.90
2022-09-15T16:15:46.824Z,52.40
2022-09-15T16:18:15.471Z,52.70
2022-09-15T16:20:46.381Z,52.70
2022-09-15T16:23:20.319Z,52.90
2022-09-15T16:25:52.167Z,53.10
2022-09-15T16:28:22.418Z,53.10
2022-09-15T16:30:51.425Z,53.40
2022-09-15T16:33:20.751Z,52.70
2022-09-15T16:35:53.211Z,52.50
2022-09-15T16:38:25.976Z,53.10
2022-09-15T16:40:57.345Z,53.60
2022-09-15T16:43:25.623Z,54.40
2022-09-15T16:45:55.352Z,54.60
2022-09-15T16:48:24.293Z,54.80
2022-09-15T16:51:19.525Z,54.90
2022-09-15T16:53:42.556Z,54.70
2022-09-15T16:56:13.421Z,55.80
2022-09-15T16:58:44.698Z,56.50
2022-09-15T17:01:19.717Z,57.00
2022-09-15T17:03:48.330Z,56.60
2022-09-15T17:06:18.644Z,55.10
2022-09-15T17:08:47.983Z,54.80
2022-09-15T17:11:17.934Z,54.20
2022-09-15T17:13:48.373Z,55.40
2022-09-15T17:16:19.642Z,56.60
2022-09-15T17:18:48.217Z,56.20
2022-09-15T17:21:18.153Z,55.60
2022-09-15T17:23:52.056Z,55.80
2022-09-15T17:26:21.803Z,55.60
2022-09-15T17:28:52.412Z,55.30
2022-09-15T17:31:23.813Z,55.60
2022-09-15T17:33:53.425Z,55.80
2022-09-15T17:36:21.399Z,55.80
2022-09-15T17:38:50.859Z,55.90
2022-09-15T17:41:21.460Z,55.80
2022-09-15T17:43:49.540Z,55.80
2022-09-15T17:46:18.020Z,55.30
2022-09-15T17:48:45.983Z,55.40
2022-09-15T17:51:18.078Z,55.70
2022-09-15T17:53:50.200Z,55.50
2022-09-15T17:56:19.519Z,55.30
2022-09-15T17:58:47.493Z,55.40
2022-09-15T18:01:16.299Z,55.20
2022-09-15T18:03:46.796Z,55.20
2022-09-15T18:06:14.884Z,55.70
2022-09-15T18:08:43.032Z,55.40
2022-09-15T18:11:15.355Z,55.50
2022-09-15T18:13:45.673Z,55.30
2022-09-15T18:16:15.391Z,54.90
2022-09-15T18:18:44.861Z,54.70
2022-09-15T18:21:25.704Z,55.00
2022-09-15T18:23:55.532Z,55.00
2022-09-15T18:26:26.209Z,54.60
2022-09-15T18:28:57.265Z,54.00
2022-09-15T18:31:25.531Z,54.00
2022-09-15T18:33:58.343Z,53.80
2022-09-15T18:36:28.489Z,53.90
2022-09-15T18:38:58.327Z,54.30
2022-09-15T18:41:27.746Z,53.90
2022-09-15T18:43:57.115Z,53.40
2022-09-15T18:46:25.933Z,53.40
2022-09-15T18:48:59.415Z,53.40
2022-09-15T18:51:50.433Z,53.10
2022-09-15T18:54:19.526Z,53.10
2022-09-15T18:56:47.782Z,52.90
2022-09-15T18:59:17.889Z,52.10
2022-09-15T19:01:46.081Z,52.20
2022-09-15T19:04:14.905Z,52.40
2022-09-15T19:06:46.462Z,52.40
2022-09-15T19:09:14.650Z,53.10
2022-09-15T19:11:42.715Z,52.90
2022-09-15T19:14:12.697Z,53.10
2022-09-15T19:16:56.947Z,53.70
2022-09-15T19:19:27.533Z,54.10
2022-09-15T19:21:55.775Z,53.40
2022-09-15T19:24:25.286Z,54.40
2022-09-15T19:26:53.199Z,54.10
2022-09-15T19:29:21.798Z,54.50
2022-09-15T19:31:53.040Z,54.40
2022-09-15T19:34:22.816Z,54.00
2022-09-15T19:36:53.028Z,54.00
2022-09-15T19:39:21.715Z,53.80
2022-09-15T19:41:50.709Z,53.50
2022-09-15T19:44:21.291Z,53.20
2022-09-15T19:46:52.664Z,53.10
2022-09-15T19:49:20.782Z,52.70
2022-09-15T19:51:52.916Z,53.10
2022-09-15T19:54:21.312Z,52.80
2022-09-15T19:56:51.081Z,53.60
2022-09-15T19:59:19.915Z,53.80
2022-09-15T20:01:48.194Z,53.30
2022-09-15T20:04:18.327Z,53.00
2022-09-15T20:06:48.893Z,52.40
2022-09-15T20:09:17.645Z,52.40
2022-09-15T20:11:48.782Z,52.70
2022-09-15T20:14:17.935Z,52.80
2022-09-15T20:16:46.143Z,53.40
2022-09-15T20:19:14.402Z,53.80
2022-09-15T20:21:51.713Z,54.20
2022-09-15T20:24:21.221Z,54.00
2022-09-15T20:26:49.566Z,53.90
2022-09-15T20:29:18.420Z,53.80
2022-09-15T20:31:47.257Z,54.00
2022-09-15T20:34:19.088Z,54.10
2022-09-15T20:36:48.882Z,54.20
2022-09-15T20:39:20.295Z,53.70
2022-09-15T20:41:50.165Z,53.70
2022-09-15T20:44:20.322Z,53.70
2022-09-15T20:46:48.667Z,53.90
2022-09-15T20:49:16.923Z,54.10
2022-09-15T20:51:46.008Z,54.20
2022-09-15T20:54:17.182Z,54.60
2022-09-15T20:56:45.307Z,55.00
2022-09-15T20:59:15.370Z,54.60
2022-09-15T21:01:44.085Z,54.40
2022-09-15T21:04:14.094Z,54.40
2022-09-15T21:06:42.343Z,55.20
2022-09-15T21:09:10.419Z,55.10
2022-09-15T21:11:43.030Z,54.80
2022-09-15T21:14:13.846Z,55.10
2022-09-15T21:16:42.733Z,54.70
2022-09-15T21:19:13.405Z,54.30
2022-09-15T21:21:42.938Z,54.00
2022-09-15T21:24:13.827Z,54.00
2022-09-15T21:26:57.419Z,54.00
2022-09-15T21:29:26.628Z,53.80
2022-09-15T21:31:56.685Z,53.90
2022-09-15T21:34:25.662Z,53.60
2022-09-15T21:36:55.577Z,53.30
2022-09-15T21:39:23.868Z,53.70
2022-09-15T21:41:54.627Z,53.60
2022-09-15T21:44:23.192Z,53.70
2022-09-15T21:46:52.630Z,54.20
2022-09-15T21:49:24.218Z,53.90
2022-09-15T21:51:52.541Z,54.10
2022-09-15T21:54:20.826Z,54.10
2022-09-15T21:56:48.893Z,54.10
2022-09-15T21:59:19.056Z,54.40
2022-09-15T22:01:47.335Z,53.70
2022-09-15T22:04:15.771Z,53.40
2022-09-15T22:06:44.750Z,54.00
2022-09-15T22:09:19.141Z,53.80
2022-09-15T22:11:47.688Z,54.10
2022-09-15T22:14:16.274Z,54.20
2022-09-15T22:16:45.776Z,54.40
2022-09-15T22:19:14.422Z,54.60
2022-09-15T22:21:42.935Z,54.80
2022-09-15T22:24:12.600Z,55.00
2022-09-15T22:26:42.103Z,54.70
2022-09-15T22:29:11.352Z,55.20
2022-09-15T22:31:40.862Z,55.10
2022-09-15T22:34:10.406Z,54.80
2022-09-15T22:36:38.873Z,54.90
2022-09-15T22:39:07.295Z,55.30
2022-09-15T22:41:37.247Z,54.70
2022-09-15T22:44:06.501Z,54.60
2022-09-15T22:46:35.018Z,55.00
2022-09-15T22:49:03.658Z,54.90
2022-09-15T22:51:33.312Z,54.80
2022-09-15T22:54:03.366Z,55.30
2022-09-15T22:56:31.454Z,54.80
2022-09-15T22:59:00.305Z,55.10
2022-09-15T23:01:30.596Z,56.00
2022-09-15T23:04:01.502Z,55.50
2022-09-15T23:06:33.522Z,55.10
2022-09-15T23:09:06.278Z,54.30
2022-09-15T23:11:34.928Z,53.50
2022-09-15T23:14:03.315Z,53.10
2022-09-15T23:16:32.260Z,53.30
2022-09-15T23:19:00.614Z,52.90
2022-09-15T23:21:28.828Z,53.10
2022-09-15T23:23:59.169Z,53.30
2022-09-15T23:26:27.685Z,53.30
2022-09-15T23:28:56.200Z,53.60
2022-09-15T23:31:24.747Z,53.10
2022-09-15T23:33:53.033Z,52.90
2022-09-15T23:36:22.870Z,53.00
2022-09-15T23:38:53.659Z,53.10
2022-09-15T23:41:23.535Z,53.60
2022-09-15T23:43:51.950Z,53.20
2022-09-15T23:46:19.956Z,53.00
2022-09-15T23:48:48.864Z,53.10
2022-09-15T23:51:17.086Z,53.30
2022-09-15T23:53:46.388Z,53.90
2022-09-15T23:56:14.730Z,54.00
2022-09-15T23:58:43.982Z,54.30
